sensor_id;sensor_type;location;lat;lon;timestamp;P1;durP1;ratioP1;P2;durP2;ratioP2
71665;SDS011;59503;53.486;10.196;2022-09-01T00:02:13;1.73;;;1.07;;
71665;SDS011;59503;53.486;10.196;2022-09-01T00:04:41;2.85;;;0.80;;
71665;SDS011;59503;53.486;10.196;2022-09-01T00:07:08;2.25;;;0.80;;
71665;SDS011;59503;53.486;10.196;2022-09-01T00:09:35;1.48;;;0.80;;
71665;SDS011;59503;53.486;10.196;2022-09-01T00:12:00;2.20;;;0.70;;
71665;SDS011;59503;53.486;10.196;2022-09-01T00:14:28;5.10;;;0.85;;
71665;SDS011;59503;53.486;10.196;2022-09-01T00:16:56;0.77;;;0.50;;
71665;SDS011;59503;53.486;10.196;2022-09-01T00:19:23;1.17;;;0.68;;
71665;SDS011;59503;53.486;10.196;2022-09-01T00:21:49;2.30;;;0.80;;
71665;SDS011;59503;53.486;10.196;2022-09-01T00:24:16;3.37;;;0.70;;
71665;SDS011;59503;53.486;10.196;2022-09-01T00:26:44;4.17;;;1.10;;
71665;SDS011;59503;53.486;10.196;2022-09-01T00:29:10;5.68;;;1.10;;
71665;SDS011;59503;53.486;10.196;2022-09-01T00:31:36;6.68;;;0.98;;
71665;SDS011;59503;53.486;10.196;2022-09-01T00:34:03;1.83;;;0.70;;
71665;SDS011;59503;53.486;10.196;2022-09-01T00:36:28;1.83;;;0.70;;
71665;SDS011;59503;53.486;10.196;2022-09-01T00:38:54;1.98;;;0.90;;
71665;SDS011;59503;53.486;10.196;2022-09-01T00:41:20;1.40;;;0.70;;
71665;SDS011;59503;53.486;10.196;2022-09-01T00:43:53;0.98;;;0.68;;
71665;SDS011;59503;53.486;10.196;2022-09-01T00:46:26;1.42;;;0.70;;
71665;SDS011;59503;53.486;10.196;2022-09-01T00:52:05;1.13;;;0.70;;
71665;SDS011;59503;53.486;10.196;2022-09-01T00:54:42;2.88;;;0.73;;
71665;SDS011;59503;53.486;10.196;2022-09-01T00:57:13;2.67;;;0.68;;
71665;SDS011;59503;53.486;10.196;2022-09-01T00:59:43;1.30;;;0.93;;
71665;SDS011;59503;53.486;10.196;2022-09-01T01:02:13;1.90;;;0.70;;
71665;SDS011;59503;53.486;10.196;2022-09-01T01:04:39;1.88;;;0.60;;
71665;SDS011;59503;53.486;10.196;2022-09-01T01:07:07;2.10;;;0.73;;
71665;SDS011;59503;53.486;10.196;2022-09-01T01:09:38;1.90;;;0.93;;
71665;SDS011;59503;53.486;10.196;2022-09-01T01:12:06;5.57;;;0.82;;
71665;SDS011;59503;53.486;10.196;2022-09-01T01:14:36;1.20;;;0.90;;
71665;SDS011;59503;53.486;10.196;2022-09-01T01:17:04;2.28;;;0.80;;
71665;SDS011;59503;53.486;10.196;2022-09-01T01:19:33;2.50;;;0.95;;
71665;SDS011;59503;53.486;10.196;2022-09-01T01:25:35;1.08;;;0.88;;
71665;SDS011;59503;53.486;10.196;2022-09-01T01:28:12;1.57;;;0.80;;
71665;SDS011;59503;53.486;10.196;2022-09-01T01:30:46;2.45;;;0.77;;
71665;SDS011;59503;53.486;10.196;2022-09-01T01:33:15;2.20;;;0.88;;
71665;SDS011;59503;53.486;10.196;2022-09-01T01:35:41;2.38;;;0.90;;
71665;SDS011;59503;53.486;10.196;2022-09-01T01:38:07;2.70;;;1.00;;
71665;SDS011;59503;53.486;10.196;2022-09-01T01:40:34;2.30;;;0.90;;
71665;SDS011;59503;53.486;10.196;2022-09-01T01:43:01;3.50;;;0.90;;
71665;SDS011;59503;53.486;10.196;2022-09-01T01:45:27;2.10;;;0.82;;
71665;SDS011;59503;53.486;10.196;2022-09-01T01:47:54;7.38;;;1.00;;
71665;SDS011;59503;53.486;10.196;2022-09-01T01:50:27;1.40;;;1.00;;
71665;SDS011;59503;53.486;10.196;2022-09-01T01:52:57;1.57;;;0.80;;
71665;SDS011;59503;53.486;10.196;2022-09-01T01:55:25;1.10;;;0.80;;
71665;SDS011;59503;53.486;10.196;2022-09-01T01:57:56;2.28;;;1.05;;
71665;SDS011;59503;53.486;10.196;2022-09-01T02:00:23;4.63;;;0.95;;
71665;SDS011;59503;53.486;10.196;2022-09-01T02:02:52;2.10;;;1.08;;
71665;SDS011;59503;53.486;10.196;2022-09-01T02:05:19;3.57;;;0.80;;
71665;SDS011;59503;53.486;10.196;2022-09-01T02:08:00;1.50;;;1.10;;
71665;SDS011;59503;53.486;10.196;2022-09-01T02:10:33;2.75;;;1.00;;
71665;SDS011;59503;53.486;10.196;2022-09-01T02:13:02;3.63;;;1.00;;
71665;SDS011;59503;53.486;10.196;2022-09-01T02:15:30;2.10;;;1.05;;
71665;SDS011;59503;53.486;10.196;2022-09-01T02:17:59;1.20;;;0.80;;
71665;SDS011;59503;53.486;10.196;2022-09-01T02:20:25;5.53;;;1.00;;
71665;SDS011;59503;53.486;10.196;2022-09-01T02:22:56;1.95;;;1.00;;
71665;SDS011;59503;53.486;10.196;2022-09-01T02:25:21;3.03;;;1.08;;
71665;SDS011;59503;53.486;10.196;2022-09-01T02:27:47;1.80;;;1.10;;
71665;SDS011;59503;53.486;10.196;2022-09-01T02:30:16;3.30;;;1.17;;
71665;SDS011;59503;53.486;10.196;2022-09-01T02:32:42;3.40;;;1.20;;
71665;SDS011;59503;53.486;10.196;2022-09-01T02:35:07;2.00;;;1.02;;
71665;SDS011;59503;53.486;10.196;2022-09-01T02:37:34;4.17;;;1.23;;
71665;SDS011;59503;53.486;10.196;2022-09-01T02:40:02;1.73;;;1.25;;
71665;SDS011;59503;53.486;10.196;2022-09-01T02:42:27;2.15;;;1.10;;
71665;SDS011;59503;53.486;10.196;2022-09-01T02:44:54;1.47;;;1.07;;
71665;SDS011;59503;53.486;10.196;2022-09-01T02:47:20;3.73;;;1.20;;
71665;SDS011;59503;53.486;10.196;2022-09-01T02:49:48;4.00;;;1.17;;
71665;SDS011;59503;53.486;10.196;2022-09-01T02:52:17;1.77;;;1.00;;
71665;SDS011;59503;53.486;10.196;2022-09-01T02:54:45;2.78;;;1.10;;
71665;SDS011;59503;53.486;10.196;2022-09-01T02:57:14;3.17;;;1.08;;
71665;SDS011;59503;53.486;10.196;2022-09-01T02:59:41;1.80;;;1.00;;
71665;SDS011;59503;53.486;10.196;2022-09-01T03:02:07;6.63;;;1.20;;
71665;SDS011;59503;53.486;10.196;2022-09-01T03:04:34;2.17;;;1.30;;
71665;SDS011;59503;53.486;10.196;2022-09-01T03:07:00;4.68;;;1.10;;
71665;SDS011;59503;53.486;10.196;2022-09-01T03:09:29;2.33;;;1.13;;
71665;SDS011;59503;53.486;10.196;2022-09-01T03:11:57;2.07;;;0.80;;
71665;SDS011;59503;53.486;10.196;2022-09-01T03:14:23;2.80;;;1.10;;
71665;SDS011;59503;53.486;10.196;2022-09-01T03:16:50;3.67;;;1.00;;
71665;SDS011;59503;53.486;10.196;2022-09-01T03:19:16;3.25;;;1.05;;
71665;SDS011;59503;53.486;10.196;2022-09-01T03:21:43;2.97;;;1.00;;
71665;SDS011;59503;53.486;10.196;2022-09-01T03:24:10;1.63;;;1.03;;
71665;SDS011;59503;53.486;10.196;2022-09-01T03:26:39;4.50;;;1.00;;
71665;SDS011;59503;53.486;10.196;2022-09-01T03:29:06;5.85;;;1.10;;
71665;SDS011;59503;53.486;10.196;2022-09-01T03:31:32;1.80;;;1.10;;
71665;SDS011;59503;53.486;10.196;2022-09-01T03:33:59;1.50;;;1.07;;
71665;SDS011;59503;53.486;10.196;2022-09-01T03:36:25;1.08;;;0.88;;
71665;SDS011;59503;53.486;10.196;2022-09-01T03:38:52;1.75;;;1.10;;
71665;SDS011;59503;53.486;10.196;2022-09-01T03:41:19;2.47;;;1.40;;
71665;SDS011;59503;53.486;10.196;2022-09-01T03:43:46;2.63;;;1.33;;
71665;SDS011;59503;53.486;10.196;2022-09-01T03:46:13;1.70;;;1.00;;
71665;SDS011;59503;53.486;10.196;2022-09-01T03:48:44;2.83;;;1.10;;
71665;SDS011;59503;53.486;10.196;2022-09-01T03:51:11;1.42;;;1.00;;
71665;SDS011;59503;53.486;10.196;2022-09-01T03:53:38;5.17;;;1.07;;
71665;SDS011;59503;53.486;10.196;2022-09-01T03:56:04;3.78;;;1.30;;
71665;SDS011;59503;53.486;10.196;2022-09-01T03:58:30;2.42;;;1.20;;
71665;SDS011;59503;53.486;10.196;2022-09-01T04:00:56;2.15;;;1.10;;
71665;SDS011;59503;53.486;10.196;2022-09-01T04:03:26;2.90;;;1.10;;
71665;SDS011;59503;53.486;10.196;2022-09-01T04:05:56;1.67;;;1.25;;
71665;SDS011;59503;53.486;10.196;2022-09-01T04:08:22;1.65;;;1.20;;
71665;SDS011;59503;53.486;10.196;2022-09-01T04:10:51;1.95;;;1.20;;
71665;SDS011;59503;53.486;10.196;2022-09-01T04:13:19;2.42;;;1.35;;
71665;SDS011;59503;53.486;10.196;2022-09-01T04:16:03;2.13;;;1.30;;
71665;SDS011;59503;53.486;10.196;2022-09-01T04:18:34;2.08;;;1.30;;
71665;SDS011;59503;53.486;10.196;2022-09-01T04:21:00;1.65;;;1.08;;
71665;SDS011;59503;53.486;10.196;2022-09-01T04:23:27;3.97;;;1.30;;
71665;SDS011;59503;53.486;10.196;2022-09-01T04:25:58;2.47;;;1.30;;
71665;SDS011;59503;53.486;10.196;2022-09-01T04:28:33;6.07;;;1.30;;
71665;SDS011;59503;53.486;10.196;2022-09-01T04:31:04;2.45;;;1.17;;
71665;SDS011;59503;53.486;10.196;2022-09-01T04:33:33;1.60;;;1.13;;
71665;SDS011;59503;53.486;10.196;2022-09-01T04:36:20;2.53;;;1.40;;
71665;SDS011;59503;53.486;10.196;2022-09-01T04:38:58;4.25;;;1.40;;
71665;SDS011;59503;53.486;10.196;2022-09-01T04:41:26;2.65;;;1.42;;
71665;SDS011;59503;53.486;10.196;2022-09-01T04:43:55;2.72;;;1.63;;
71665;SDS011;59503;53.486;10.196;2022-09-01T04:46:23;3.40;;;1.73;;
71665;SDS011;59503;53.486;10.196;2022-09-01T04:48:53;1.83;;;1.13;;
71665;SDS011;59503;53.486;10.196;2022-09-01T04:51:19;1.98;;;1.35;;
71665;SDS011;59503;53.486;10.196;2022-09-01T04:53:45;5.53;;;1.50;;
71665;SDS011;59503;53.486;10.196;2022-09-01T04:56:13;2.13;;;1.38;;
71665;SDS011;59503;53.486;10.196;2022-09-01T04:58:44;2.90;;;1.40;;
71665;SDS011;59503;53.486;10.196;2022-09-01T05:01:28;1.88;;;1.52;;
71665;SDS011;59503;53.486;10.196;2022-09-01T05:03:54;3.05;;;1.60;;
71665;SDS011;59503;53.486;10.196;2022-09-01T05:06:25;3.13;;;1.33;;
71665;SDS011;59503;53.486;10.196;2022-09-01T05:08:52;3.85;;;1.50;;
71665;SDS011;59503;53.486;10.196;2022-09-01T05:11:17;3.87;;;1.50;;
71665;SDS011;59503;53.486;10.196;2022-09-01T05:13:44;8.52;;;1.60;;
71665;SDS011;59503;53.486;10.196;2022-09-01T05:16:11;3.42;;;1.70;;
71665;SDS011;59503;53.486;10.196;2022-09-01T05:18:39;2.50;;;1.80;;
71665;SDS011;59503;53.486;10.196;2022-09-01T05:21:06;7.22;;;2.03;;
71665;SDS011;59503;53.486;10.196;2022-09-01T05:23:33;2.85;;;1.60;;
71665;SDS011;59503;53.486;10.196;2022-09-01T05:26:00;4.75;;;1.70;;
71665;SDS011;59503;53.486;10.196;2022-09-01T05:28:28;2.97;;;1.70;;
71665;SDS011;59503;53.486;10.196;2022-09-01T05:30:53;2.47;;;1.37;;
71665;SDS011;59503;53.486;10.196;2022-09-01T05:33:19;3.00;;;1.40;;
71665;SDS011;59503;53.486;10.196;2022-09-01T05:35:55;4.22;;;1.55;;
71665;SDS011;59503;53.486;10.196;2022-09-01T05:38:23;2.45;;;1.40;;
71665;SDS011;59503;53.486;10.196;2022-09-01T05:40:56;3.35;;;1.52;;
71665;SDS011;59503;53.486;10.196;2022-09-01T05:43:23;3.67;;;1.60;;
71665;SDS011;59503;53.486;10.196;2022-09-01T05:45:49;2.92;;;1.45;;
71665;SDS011;59503;53.486;10.196;2022-09-01T05:48:14;5.38;;;2.22;;
71665;SDS011;59503;53.486;10.196;2022-09-01T05:50:45;4.67;;;1.67;;
71665;SDS011;59503;53.486;10.196;2022-09-01T05:53:13;3.92;;;1.70;;
71665;SDS011;59503;53.486;10.196;2022-09-01T05:55:45;2.80;;;1.38;;
71665;SDS011;59503;53.486;10.196;2022-09-01T05:58:13;8.40;;;1.80;;
71665;SDS011;59503;53.486;10.196;2022-09-01T06:00:41;3.47;;;1.83;;
71665;SDS011;59503;53.486;10.196;2022-09-01T06:03:11;9.63;;;1.97;;
71665;SDS011;59503;53.486;10.196;2022-09-01T06:05:38;5.85;;;1.35;;
71665;SDS011;59503;53.486;10.196;2022-09-01T06:08:05;3.78;;;1.42;;
71665;SDS011;59503;53.486;10.196;2022-09-01T06:10:37;6.40;;;1.75;;
71665;SDS011;59503;53.486;10.196;2022-09-01T06:13:05;6.40;;;1.60;;
71665;SDS011;59503;53.486;10.196;2022-09-01T06:15:32;4.37;;;1.30;;
71665;SDS011;59503;53.486;10.196;2022-09-01T06:18:00;6.63;;;1.33;;
71665;SDS011;59503;53.486;10.196;2022-09-01T06:20:26;8.25;;;1.50;;
71665;SDS011;59503;53.486;10.196;2022-09-01T06:22:51;1.67;;;1.10;;
71665;SDS011;59503;53.486;10.196;2022-09-01T06:25:20;3.28;;;1.20;;
71665;SDS011;59503;53.486;10.196;2022-09-01T06:27:47;6.80;;;1.20;;
71665;SDS011;59503;53.486;10.196;2022-09-01T06:30:13;2.97;;;1.10;;
71665;SDS011;59503;53.486;10.196;2022-09-01T06:32:42;5.40;;;1.52;;
71665;SDS011;59503;53.486;10.196;2022-09-01T06:35:11;4.05;;;1.00;;
71665;SDS011;59503;53.486;10.196;2022-09-01T06:37:40;7.70;;;1.08;;
71665;SDS011;59503;53.486;10.196;2022-09-01T06:40:07;2.92;;;0.90;;
71665;SDS011;59503;53.486;10.196;2022-09-01T06:42:34;5.07;;;1.03;;
71665;SDS011;59503;53.486;10.196;2022-09-01T06:45:02;6.53;;;1.45;;
71665;SDS011;59503;53.486;10.196;2022-09-01T06:47:29;4.70;;;0.93;;
71665;SDS011;59503;53.486;10.196;2022-09-01T06:49:55;5.00;;;0.90;;
71665;SDS011;59503;53.486;10.196;2022-09-01T06:52:23;4.40;;;0.82;;
71665;SDS011;59503;53.486;10.196;2022-09-01T06:54:49;4.57;;;0.80;;
71665;SDS011;59503;53.486;10.196;2022-09-01T06:57:16;2.10;;;0.60;;
71665;SDS011;59503;53.486;10.196;2022-09-01T06:59:41;0.80;;;0.50;;
71665;SDS011;59503;53.486;10.196;2022-09-01T07:02:06;1.00;;;0.50;;
71665;SDS011;59503;53.486;10.196;2022-09-01T07:04:33;0.82;;;0.40;;
71665;SDS011;59503;53.486;10.196;2022-09-01T07:06:58;4.03;;;0.50;;
71665;SDS011;59503;53.486;10.196;2022-09-01T07:09:24;1.03;;;0.40;;
71665;SDS011;59503;53.486;10.196;2022-09-01T07:11:50;2.13;;;0.50;;
71665;SDS011;59503;53.486;10.196;2022-09-01T07:14:17;1.20;;;0.40;;
71665;SDS011;59503;53.486;10.196;2022-09-01T07:16:43;1.88;;;0.60;;
71665;SDS011;59503;53.486;10.196;2022-09-01T07:19:11;1.15;;;0.52;;
71665;SDS011;59503;53.486;10.196;2022-09-01T07:21:39;2.40;;;0.50;;
71665;SDS011;59503;53.486;10.196;2022-09-01T07:24:05;3.05;;;0.50;;
71665;SDS011;59503;53.486;10.196;2022-09-01T07:26:31;1.90;;;0.60;;
71665;SDS011;59503;53.486;10.196;2022-09-01T07:29:00;1.63;;;0.57;;
71665;SDS011;59503;53.486;10.196;2022-09-01T07:31:28;1.13;;;0.50;;
71665;SDS011;59503;53.486;10.196;2022-09-01T07:33:57;0.90;;;0.50;;
71665;SDS011;59503;53.486;10.196;2022-09-01T07:36:24;1.40;;;0.55;;
71665;SDS011;59503;53.486;10.196;2022-09-01T07:38:50;3.07;;;0.60;;
71665;SDS011;59503;53.486;10.196;2022-09-01T07:41:21;1.10;;;0.40;;
71665;SDS011;59503;53.486;10.196;2022-09-01T07:43:48;1.38;;;0.50;;
71665;SDS011;59503;53.486;10.196;2022-09-01T07:46:19;1.15;;;0.57;;
71665;SDS011;59503;53.486;10.196;2022-09-01T07:48:47;1.00;;;0.45;;
71665;SDS011;59503;53.486;10.196;2022-09-01T07:51:15;2.10;;;0.50;;
71665;SDS011;59503;53.486;10.196;2022-09-01T07:53:44;4.57;;;0.60;;
71665;SDS011;59503;53.486;10.196;2022-09-01T07:56:12;1.40;;;0.40;;
71665;SDS011;59503;53.486;10.196;2022-09-01T07:58:39;2.45;;;0.60;;
71665;SDS011;59503;53.486;10.196;2022-09-01T08:01:09;0.82;;;0.52;;
71665;SDS011;59503;53.486;10.196;2022-09-01T08:03:38;2.60;;;0.70;;
71665;SDS011;59503;53.486;10.196;2022-09-01T08:06:08;1.85;;;0.73;;
71665;SDS011;59503;53.486;10.196;2022-09-01T08:08:37;2.05;;;0.50;;
71665;SDS011;59503;53.486;10.196;2022-09-01T08:11:04;1.77;;;0.70;;
71665;SDS011;59503;53.486;10.196;2022-09-01T08:13:31;1.38;;;0.75;;
71665;SDS011;59503;53.486;10.196;2022-09-01T08:15:58;3.13;;;0.63;;
71665;SDS011;59503;53.486;10.196;2022-09-01T08:18:28;0.80;;;0.50;;
71665;SDS011;59503;53.486;10.196;2022-09-01T08:20:53;1.20;;;0.50;;
71665;SDS011;59503;53.486;10.196;2022-09-01T08:23:19;0.95;;;0.57;;
71665;SDS011;59503;53.486;10.196;2022-09-01T08:25:45;4.00;;;0.80;;
71665;SDS011;59503;53.486;10.196;2022-09-01T08:28:12;2.58;;;0.80;;
71665;SDS011;59503;53.486;10.196;2022-09-01T08:30:39;1.25;;;0.80;;
71665;SDS011;59503;53.486;10.196;2022-09-01T08:33:07;1.55;;;0.80;;
71665;SDS011;59503;53.486;10.196;2022-09-01T08:35:36;1.93;;;0.60;;
71665;SDS011;59503;53.486;10.196;2022-09-01T08:38:02;1.50;;;0.77;;
71665;SDS011;59503;53.486;10.196;2022-09-01T08:40:28;1.10;;;0.70;;
71665;SDS011;59503;53.486;10.196;2022-09-01T08:45:27;3.58;;;0.80;;
71665;SDS011;59503;53.486;10.196;2022-09-01T08:48:00;1.17;;;0.82;;
71665;SDS011;59503;53.486;10.196;2022-09-01T08:50:33;1.42;;;0.68;;
71665;SDS011;59503;53.486;10.196;2022-09-01T08:53:33;1.10;;;1.00;;
71665;SDS011;59503;53.486;10.196;2022-09-01T08:55:57;2.40;;;1.00;;
71665;SDS011;59503;53.486;10.196;2022-09-01T08:58:23;2.00;;;1.02;;
71665;SDS011;59503;53.486;10.196;2022-09-01T09:00:55;1.23;;;1.08;;
71665;SDS011;59503;53.486;10.196;2022-09-01T09:06:09;2.33;;;0.90;;
71665;SDS011;59503;53.486;10.196;2022-09-01T09:09:04;1.25;;;0.90;;
71665;SDS011;59503;53.486;10.196;2022-09-01T09:17:09;2.25;;;1.30;;
71665;SDS011;59503;53.486;10.196;2022-09-01T09:19:40;1.20;;;1.10;;
71665;SDS011;59503;53.486;10.196;2022-09-01T09:22:09;1.25;;;1.00;;
71665;SDS011;59503;53.486;10.196;2022-09-01T09:24:39;2.00;;;0.88;;
71665;SDS011;59503;53.486;10.196;2022-09-01T09:30:03;1.00;;;0.90;;
71665;SDS011;59503;53.486;10.196;2022-09-01T09:37:52;1.02;;;0.73;;
71665;SDS011;59503;53.486;10.196;2022-09-01T09:40:19;2.38;;;0.80;;
71665;SDS011;59503;53.486;10.196;2022-09-01T09:48:05;1.60;;;0.63;;
71665;SDS011;59503;53.486;10.196;2022-09-01T09:50:39;1.15;;;0.60;;
71665;SDS011;59503;53.486;10.196;2022-09-01T09:53:09;0.90;;;0.60;;
71665;SDS011;59503;53.486;10.196;2022-09-01T09:56:03;1.00;;;0.60;;
71665;SDS011;59503;53.486;10.196;2022-09-01T09:58:42;2.87;;;0.70;;
71665;SDS011;59503;53.486;10.196;2022-09-01T10:03:49;2.05;;;0.57;;
71665;SDS011;59503;53.486;10.196;2022-09-01T10:06:32;1.02;;;0.77;;
71665;SDS011;59503;53.486;10.196;2022-09-01T10:08:59;0.80;;;0.50;;
71665;SDS011;59503;53.486;10.196;2022-09-01T10:11:40;2.50;;;0.60;;
71665;SDS011;59503;53.486;10.196;2022-09-01T10:16:42;1.15;;;0.60;;
71665;SDS011;59503;53.486;10.196;2022-09-01T10:19:11;1.13;;;0.68;;
71665;SDS011;59503;53.486;10.196;2022-09-01T10:21:39;2.05;;;0.40;;
71665;SDS011;59503;53.486;10.196;2022-09-01T10:30:25;0.77;;;0.47;;
71665;SDS011;59503;53.486;10.196;2022-09-01T10:32:38;2.25;;;0.52;;
71665;SDS011;59503;53.486;10.196;2022-09-01T10:35:09;2.35;;;0.60;;
71665;SDS011;59503;53.486;10.196;2022-09-01T10:37:38;0.80;;;0.50;;
71665;SDS011;59503;53.486;10.196;2022-09-01T10:40:09;1.45;;;0.50;;
71665;SDS011;59503;53.486;10.196;2022-09-01T10:42:34;1.27;;;0.57;;
71665;SDS011;59503;53.486;10.196;2022-09-01T10:45:00;0.97;;;0.57;;
71665;SDS011;59503;53.486;10.196;2022-09-01T10:47:27;4.57;;;0.60;;
71665;SDS011;59503;53.486;10.196;2022-09-01T10:50:44;2.78;;;0.50;;
71665;SDS011;59503;53.486;10.196;2022-09-01T10:53:00;1.30;;;0.40;;
71665;SDS011;59503;53.486;10.196;2022-09-01T10:55:28;2.07;;;0.60;;
71665;SDS011;59503;53.486;10.196;2022-09-01T11:05:59;1.80;;;0.40;;
71665;SDS011;59503;53.486;10.196;2022-09-01T11:11:00;1.70;;;0.70;;
71665;SDS011;59503;53.486;10.196;2022-09-01T11:13:45;3.08;;;0.73;;
71665;SDS011;59503;53.486;10.196;2022-09-01T11:18:53;1.45;;;0.60;;
71665;SDS011;59503;53.486;10.196;2022-09-01T11:21:23;2.17;;;0.60;;
71665;SDS011;59503;53.486;10.196;2022-09-01T11:27:05;3.53;;;0.63;;
71665;SDS011;59503;53.486;10.196;2022-09-01T11:32:36;3.20;;;0.60;;
71665;SDS011;59503;53.486;10.196;2022-09-01T11:35:04;0.97;;;0.67;;
71665;SDS011;59503;53.486;10.196;2022-09-01T11:37:38;1.80;;;0.50;;
71665;SDS011;59503;53.486;10.196;2022-09-01T11:40:04;3.60;;;0.65;;
71665;SDS011;59503;53.486;10.196;2022-09-01T11:45:15;4.20;;;0.98;;
71665;SDS011;59503;53.486;10.196;2022-09-01T11:47:46;4.13;;;0.77;;
71665;SDS011;59503;53.486;10.196;2022-09-01T11:50:27;2.22;;;0.80;;
71665;SDS011;59503;53.486;10.196;2022-09-01T11:52:53;0.93;;;0.60;;
71665;SDS011;59503;53.486;10.196;2022-09-01T11:55:31;2.85;;;0.50;;
71665;SDS011;59503;53.486;10.196;2022-09-01T11:57:59;1.70;;;0.80;;
71665;SDS011;59503;53.486;10.196;2022-09-01T12:00:26;1.20;;;0.43;;
71665;SDS011;59503;53.486;10.196;2022-09-01T12:02:53;1.20;;;0.60;;
71665;SDS011;59503;53.486;10.196;2022-09-01T12:05:37;5.77;;;0.83;;
71665;SDS011;59503;53.486;10.196;2022-09-01T12:08:11;1.48;;;0.55;;
71665;SDS011;59503;53.486;10.196;2022-09-01T12:10:39;1.88;;;0.60;;
71665;SDS011;59503;53.486;10.196;2022-09-01T12:15:38;1.88;;;0.57;;
71665;SDS011;59503;53.486;10.196;2022-09-01T12:18:13;2.70;;;0.67;;
71665;SDS011;59503;53.486;10.196;2022-09-01T12:20:42;0.88;;;0.45;;
71665;SDS011;59503;53.486;10.196;2022-09-01T12:23:17;2.55;;;0.70;;
71665;SDS011;59503;53.486;10.196;2022-09-01T12:25:49;2.00;;;0.77;;
71665;SDS011;59503;53.486;10.196;2022-09-01T12:28:15;2.28;;;0.45;;
71665;SDS011;59503;53.486;10.196;2022-09-01T12:30:41;1.03;;;0.60;;
71665;SDS011;59503;53.486;10.196;2022-09-01T12:33:08;2.95;;;0.77;;
71665;SDS011;59503;53.486;10.196;2022-09-01T12:35:35;2.38;;;0.60;;
71665;SDS011;59503;53.486;10.196;2022-09-01T12:40:45;1.92;;;0.70;;
71665;SDS011;59503;53.486;10.196;2022-09-01T12:43:29;1.00;;;0.50;;
71665;SDS011;59503;53.486;10.196;2022-09-01T12:45:58;1.93;;;0.50;;
71665;SDS011;59503;53.486;10.196;2022-09-01T12:48:29;2.83;;;0.50;;
71665;SDS011;59503;53.486;10.196;2022-09-01T12:51:18;1.85;;;0.70;;
71665;SDS011;59503;53.486;10.196;2022-09-01T12:54:04;1.23;;;0.70;;
71665;SDS011;59503;53.486;10.196;2022-09-01T12:56:33;2.20;;;0.45;;
71665;SDS011;59503;53.486;10.196;2022-09-01T12:59:05;0.70;;;0.60;;
71665;SDS011;59503;53.486;10.196;2022-09-01T13:01:33;6.78;;;1.10;;
71665;SDS011;59503;53.486;10.196;2022-09-01T13:06:49;2.08;;;0.60;;
71665;SDS011;59503;53.486;10.196;2022-09-01T13:09:16;4.88;;;0.95;;
71665;SDS011;59503;53.486;10.196;2022-09-01T13:11:42;2.33;;;0.37;;
71665;SDS011;59503;53.486;10.196;2022-09-01T13:14:08;1.00;;;0.50;;
71665;SDS011;59503;53.486;10.196;2022-09-01T13:16:34;5.15;;;0.63;;
71665;SDS011;59503;53.486;10.196;2022-09-01T13:19:01;5.47;;;0.70;;
71665;SDS011;59503;53.486;10.196;2022-09-01T13:21:27;2.60;;;0.83;;
71665;SDS011;59503;53.486;10.196;2022-09-01T13:23:53;3.75;;;1.00;;
71665;SDS011;59503;53.486;10.196;2022-09-01T13:26:18;2.13;;;1.03;;
71665;SDS011;59503;53.486;10.196;2022-09-01T13:28:43;3.33;;;0.80;;
71665;SDS011;59503;53.486;10.196;2022-09-01T13:31:10;1.60;;;1.20;;
71665;SDS011;59503;53.486;10.196;2022-09-01T13:33:36;2.83;;;0.60;;
71665;SDS011;59503;53.486;10.196;2022-09-01T13:36:02;4.38;;;0.98;;
71665;SDS011;59503;53.486;10.196;2022-09-01T13:38:28;2.65;;;0.70;;
71665;SDS011;59503;53.486;10.196;2022-09-01T13:40:56;2.00;;;0.80;;
71665;SDS011;59503;53.486;10.196;2022-09-01T13:43:22;1.50;;;0.80;;
71665;SDS011;59503;53.486;10.196;2022-09-01T13:45:50;1.33;;;0.77;;
71665;SDS011;59503;53.486;10.196;2022-09-01T13:48:16;2.60;;;0.60;;
71665;SDS011;59503;53.486;10.196;2022-09-01T13:50:42;4.78;;;0.65;;
71665;SDS011;59503;53.486;10.196;2022-09-01T13:53:13;1.35;;;0.50;;
71665;SDS011;59503;53.486;10.196;2022-09-01T13:55:39;2.30;;;0.70;;
71665;SDS011;59503;53.486;10.196;2022-09-01T13:58:05;1.38;;;0.60;;
71665;SDS011;59503;53.486;10.196;2022-09-01T14:00:32;1.00;;;0.60;;
71665;SDS011;59503;53.486;10.196;2022-09-01T14:03:01;1.13;;;0.60;;
71665;SDS011;59503;53.486;10.196;2022-09-01T14:05:31;2.20;;;0.65;;
71665;SDS011;59503;53.486;10.196;2022-09-01T14:07:59;1.45;;;0.70;;
71665;SDS011;59503;53.486;10.196;2022-09-01T14:10:26;1.10;;;0.60;;
71665;SDS011;59503;53.486;10.196;2022-09-01T14:12:53;1.88;;;0.70;;
71665;SDS011;59503;53.486;10.196;2022-09-01T14:15:19;3.97;;;0.80;;
71665;SDS011;59503;53.486;10.196;2022-09-01T14:17:46;1.13;;;0.90;;
71665;SDS011;59503;53.486;10.196;2022-09-01T14:20:18;2.90;;;0.80;;
71665;SDS011;59503;53.486;10.196;2022-09-01T14:22:46;2.08;;;0.90;;
71665;SDS011;59503;53.486;10.196;2022-09-01T14:25:12;2.20;;;0.82;;
71665;SDS011;59503;53.486;10.196;2022-09-01T14:27:39;3.77;;;1.07;;
71665;SDS011;59503;53.486;10.196;2022-09-01T14:30:06;1.13;;;1.00;;
71665;SDS011;59503;53.486;10.196;2022-09-01T14:32:36;1.17;;;1.05;;
71665;SDS011;59503;53.486;10.196;2022-09-01T14:35:02;1.05;;;0.90;;
71665;SDS011;59503;53.486;10.196;2022-09-01T14:37:28;5.73;;;1.10;;
71665;SDS011;59503;53.486;10.196;2022-09-01T14:39:54;4.03;;;0.85;;
71665;SDS011;59503;53.486;10.196;2022-09-01T14:42:21;5.05;;;1.50;;
71665;SDS011;59503;53.486;10.196;2022-09-01T14:44:49;6.67;;;1.10;;
71665;SDS011;59503;53.486;10.196;2022-09-01T14:47:16;4.75;;;0.90;;
71665;SDS011;59503;53.486;10.196;2022-09-01T14:49:42;8.40;;;1.00;;
71665;SDS011;59503;53.486;10.196;2022-09-01T14:52:08;1.63;;;0.77;;
71665;SDS011;59503;53.486;10.196;2022-09-01T14:54:34;4.10;;;0.67;;
71665;SDS011;59503;53.486;10.196;2022-09-01T14:57:01;2.45;;;0.70;;
71665;SDS011;59503;53.486;10.196;2022-09-01T14:59:27;3.97;;;0.93;;
71665;SDS011;59503;53.486;10.196;2022-09-01T15:01:52;1.40;;;0.63;;
71665;SDS011;59503;53.486;10.196;2022-09-01T15:04:18;3.38;;;0.70;;
71665;SDS011;59503;53.486;10.196;2022-09-01T15:06:43;3.23;;;0.70;;
71665;SDS011;59503;53.486;10.196;2022-09-01T15:09:09;1.97;;;0.80;;
71665;SDS011;59503;53.486;10.196;2022-09-01T15:11:34;3.17;;;0.57;;
71665;SDS011;59503;53.486;10.196;2022-09-01T15:14:00;1.50;;;0.63;;
71665;SDS011;59503;53.486;10.196;2022-09-01T15:16:25;0.80;;;0.57;;
71665;SDS011;59503;53.486;10.196;2022-09-01T15:18:52;4.95;;;0.70;;
71665;SDS011;59503;53.486;10.196;2022-09-01T15:21:26;1.98;;;0.70;;
71665;SDS011;59503;53.486;10.196;2022-09-01T15:23:56;5.22;;;0.68;;
71665;SDS011;59503;53.486;10.196;2022-09-01T15:26:21;2.67;;;0.80;;
71665;SDS011;59503;53.486;10.196;2022-09-01T15:28:47;1.10;;;0.68;;
71665;SDS011;59503;53.486;10.196;2022-09-01T15:31:15;1.10;;;0.60;;
71665;SDS011;59503;53.486;10.196;2022-09-01T15:33:42;4.50;;;0.93;;
71665;SDS011;59503;53.486;10.196;2022-09-01T15:36:12;2.65;;;0.80;;
71665;SDS011;59503;53.486;10.196;2022-09-01T15:38:40;2.35;;;0.73;;
71665;SDS011;59503;53.486;10.196;2022-09-01T15:41:06;2.23;;;0.60;;
71665;SDS011;59503;53.486;10.196;2022-09-01T15:43:31;1.40;;;0.70;;
71665;SDS011;59503;53.486;10.196;2022-09-01T15:45:58;1.00;;;0.50;;
71665;SDS011;59503;53.486;10.196;2022-09-01T15:48:28;2.75;;;0.70;;
71665;SDS011;59503;53.486;10.196;2022-09-01T15:50:57;1.65;;;0.70;;
71665;SDS011;59503;53.486;10.196;2022-09-01T15:53:40;1.17;;;0.70;;
71665;SDS011;59503;53.486;10.196;2022-09-01T15:56:05;1.95;;;0.95;;